Wenatchee, WA (98802)

4:44 AM PDT on September 02, 2015 (GMT -0700)
East Wenatchee North Nile | | Change Station
CLOSE
Current Station
Personal Weather Station
Location: East Wenatchee, WA
Elevation: 1184 ft
Nearby Weather Stations

Elev 1184 ft 47.41 °N, 120.24 °W | Updated 35 seconds ago

Overcast
Overcast
59.7 °F
Feels Like 59.7 °F
N
5.8
Wind Variable Wind from North
Gusts 7.4 mph

Today
High -- | Low -- °F
--% Chance of Precip.
Yesterday
High -- | Low -- °F
Precip. -- in
6:20 AM 7:39 PM
Waning Gibbous, 81% visible
Pressure 29.70 in
Visibility 10.0 miles
Clouds Overcast 7500 ft
Dew Point 44 °F
Humidity 56%
Rainfall 0.00 in
Snow Depth Not available.
UV 0.0 out of 12
Pollen 4.10 out of 12
Air Quality Not available.
Flu Activity Not available.
METAR KEAT 021055Z AUTO VRB04KT 10SM OVC075 17/06 A2972 RMK AO2 SLP057 T01720061
Pressure 29.70 in
Visibility 10.0 miles
Clouds Overcast 7500 ft
Dew Point 44 °F
Humidity 56%
Rainfall 0.00 in
Snow Depth Not available.
UV 0.0 out of 12
Pollen 4.10 out of 12
Air Quality Not available.
Flu Activity Not available.
METAR KEAT 021055Z AUTO VRB04KT 10SM OVC075 17/06 A2972 RMK AO2 SLP057 T01720061

10-Day Weather Forecast

×

Almanac

Astronomy

Sep. 02, 2015 Rise Set
Actual Time
Civil Twilight
Nautical Twilight
Astronomical Twilight
Moon
Length of Visible Light
Length of Day
Tomorrow will be .
, % of the Moon is Illuminated

Today's Extremes

State Highs State Lows

Community

WunderPhotos

Upload Photos

1,851,736 photos uploaded!

WunderBlogs® & News

Nearby

Air Quality

  Air Quality AQ Index Pollutant
Not available.

Snow Depth

Station Depth Elevation

Earthquake Activity

City Distance Mag. Time & Date
Minimum magnitude displayed is 2.5.

Coastal Water Temperatures

Place Temperature

Stations

Nearby Weather Stations

Station Location Temp. Windchill Dew Point Humidity Wind Precip. Elev Updated Type